Terminal Aerodrome Forecast
Issued by NWS Greer, SC

Home | Current Version | Previous Version | Text Only | Print | Product List | Glossary On
Versions: 1 2 3 4 5 6 7 8 9 10 11 12 13 14 15 16 17 18 19
000
FTUS42 KGSP 262335
TAFGSP
TAF
KGSP 262335Z 2700/2724 16006KT P6SM FEW040 SCT100 SCT250
     FM270300 16004KT P6SM VCSH BKN050
     FM270900 18004KT 5SM BR BKN040 PROB30 2709/2711 2SM -SHRA BR
      OVC025
     FM271100 19004KT 3SM BR BKN008
     FM271400 19004KT P6SM BKN008
     FM271700 22007KT P6SM VCSH BKN050=

USA.gov is the U.S. government's official web portal to all federal, state and local government web resources and services.